Time;durP1;ratioP1;P1;durP2;ratioP2;P2;SDS_P1;SDS_P2;PMS_P1;PMS_P2;Temp;Humidity;BMP_temperature;BMP_pressure;BME280_temperature;BME280_humidity;BME280_pressure;Samples;Min_cycle;Max_cycle;Signal;HPM_P1;HPM_P2
2023/05/07 00:01:28;;;;;;;16.73;9.35;;;11.50;99.90;;;;;;5055241;28;20495;-43
2023/05/07 00:03:54;;;;;;;15.87;9.13;;;11.40;99.90;;;;;;5056193;28;20037;-43
2023/05/07 00:06:19;;;;;;;16.03;8.27;;;11.40;99.90;;;;;;5055979;28;20322;-44
2023/05/07 00:08:45;;;;;;;17.50;9.53;;;11.40;99.90;;;;;;5056090;28;20088;-44
2023/05/07 00:11:11;;;;;;;16.47;9.07;;;11.40;99.90;;;;;;5055751;28;20098;-43
2023/05/07 00:13:37;;;;;;;18.03;9.37;;;11.40;99.90;;;;;;5055991;28;20044;-43
2023/05/07 00:16:03;;;;;;;15.43;8.80;;;11.30;99.90;;;;;;5055653;28;20287;-44
2023/05/07 00:18:28;;;;;;;17.55;9.38;;;11.30;99.90;;;;;;5054912;28;20049;-44
2023/05/07 00:20:54;;;;;;;16.13;9.50;;;11.30;99.90;;;;;;5055926;28;20049;-45
2023/05/07 00:23:20;;;;;;;18.73;9.27;;;11.30;99.90;;;;;;5055797;28;20396;-43
2023/05/07 00:25:45;;;;;;;15.87;9.10;;;11.30;99.90;;;;;;5055484;28;20041;-44
2023/05/07 00:28:11;;;;;;;19.27;9.57;;;11.30;99.90;;;;;;5055730;28;20098;-44
2023/05/07 00:30:37;;;;;;;15.33;9.30;;;11.20;99.90;;;;;;5055549;28;20045;-43
2023/05/07 00:33:02;;;;;;;18.47;9.50;;;11.20;99.90;;;;;;5055847;28;20045;-45
2023/05/07 00:35:29;;;;;;;19.23;10.10;;;11.20;99.90;;;;;;5055676;28;20052;-44
2023/05/07 00:37:55;;;;;;;15.07;8.70;;;11.20;99.90;;;;;;5054513;28;20103;-44
2023/05/07 00:40:21;;;;;;;16.53;9.73;;;11.20;99.90;;;;;;5055363;28;20041;-44
2023/05/07 00:42:48;;;;;;;18.77;9.38;;;11.20;99.90;;;;;;5055561;28;20275;-43
2023/05/07 00:45:15;;;;;;;16.13;9.55;;;11.20;99.90;;;;;;5055365;28;20571;-44
2023/05/07 00:47:41;;;;;;;;;;;11.20;99.90;;;;;;5055812;28;20049;-43
2023/05/07 00:50:09;;;;;;;18.05;9.82;;;11.20;99.90;;;;;;5055336;28;19921;-43
2023/05/07 00:52:35;;;;;;;18.02;10.10;;;11.20;99.90;;;;;;5054975;28;20048;-45
2023/05/07 00:55:05;;;;;;;17.58;9.50;;;11.20;99.90;;;;;;5055223;28;20045;-43
2023/05/07 00:57:36;;;;;;;16.85;9.32;;;11.20;99.90;;;;;;5055133;28;20078;-43
2023/05/07 01:00:04;;;;;;;16.98;9.63;;;11.20;99.90;;;;;;5055071;28;20090;-43
2023/05/07 01:02:29;;;;;;;20.67;10.75;;;11.20;99.90;;;;;;5054929;28;20145;-43
2023/05/07 01:04:56;;;;;;;20.13;11.10;;;11.20;99.90;;;;;;5054934;28;20053;-43
2023/05/07 01:07:23;;;;;;;24.08;11.85;;;11.20;99.90;;;;;;5053363;28;20496;-44
2023/05/07 01:09:49;;;;;;;18.55;10.32;;;11.20;99.90;;;;;;5054486;28;20041;-43
2023/05/07 01:12:15;;;;;;;21.02;10.90;;;11.20;99.90;;;;;;5054853;28;20052;-43
2023/05/07 01:14:41;;;;;;;20.40;10.32;;;11.20;99.90;;;;;;5054757;28;20491;-43
2023/05/07 01:17:08;;;;;;;21.45;11.93;;;11.20;99.90;;;;;;5054719;28;20041;-43
2023/05/07 01:19:34;;;;;;;23.02;11.93;;;11.20;99.90;;;;;;5054656;28;20120;-43
2023/05/07 01:22:08;;;;;;;25.05;11.57;;;11.20;99.90;;;;;;5054643;28;20183;-45
2023/05/07 01:24:36;;;;;;;22.23;10.70;;;11.20;99.90;;;;;;5054663;28;20048;-43
2023/05/07 01:27:01;;;;;;;22.88;12.80;;;11.20;99.90;;;;;;5053868;28;20048;-43
2023/05/07 01:29:28;;;;;;;24.67;12.60;;;11.20;99.90;;;;;;5054707;28;20094;-43
2023/05/07 01:31:56;;;;;;;25.08;13.65;;;11.20;99.90;;;;;;5053666;28;20076;-44
2023/05/07 01:34:23;;;;;;;25.40;14.48;;;11.20;99.90;;;;;;5054502;28;20048;-45
2023/05/07 01:36:49;;;;;;;29.02;15.32;;;11.20;99.90;;;;;;5054352;28;20120;-43
2023/05/07 01:39:15;;;;;;;27.15;14.75;;;11.30;99.90;;;;;;5054765;28;20536;-44
2023/05/07 01:41:41;;;;;;;26.15;14.43;;;11.30;99.90;;;;;;5054323;28;20045;-44
2023/05/07 01:44:07;;;;;;;26.70;13.63;;;11.20;99.90;;;;;;5054373;28;20051;-43
2023/05/07 01:46:33;;;;;;;29.88;15.45;;;11.30;99.90;;;;;;5054120;28;20048;-47
2023/05/07 01:48:59;;;;;;;28.38;14.98;;;11.30;99.90;;;;;;5054176;28;20113;-43
2023/05/07 01:51:26;;;;;;;30.65;16.00;;;11.20;99.90;;;;;;5053862;28;20076;-45
2023/05/07 01:53:53;;;;;;;29.67;14.73;;;11.20;99.90;;;;;;5053965;28;20056;-44
2023/05/07 01:56:20;;;;;;;30.13;16.13;;;11.20;99.90;;;;;;5053900;28;20102;-43
2023/05/07 01:58:46;;;;;;;28.95;15.20;;;11.20;99.90;;;;;;5052802;28;20530;-44
2023/05/07 02:01:13;;;;;;;29.58;15.82;;;11.20;99.90;;;;;;5052710;28;20049;-44
2023/05/07 02:03:39;;;;;;;32.78;16.77;;;11.20;99.90;;;;;;5053423;28;20218;-44
2023/05/07 02:06:05;;;;;;;30.23;16.43;;;11.20;99.90;;;;;;5053685;28;20127;-43
2023/05/07 02:08:30;;;;;;;31.67;16.38;;;11.20;99.90;;;;;;5053508;28;20138;-44
2023/05/07 02:10:56;;;;;;;29.27;15.93;;;11.20;99.90;;;;;;5053855;28;20492;-44
2023/05/07 02:13:24;;;;;;;30.50;15.27;;;11.10;99.90;;;;;;5053733;28;20136;-43
2023/05/07 02:15:50;;;;;;;29.33;15.63;;;11.20;99.90;;;;;;5053775;28;20403;-43
2023/05/07 02:18:16;;;;;;;30.67;16.52;;;11.10;99.90;;;;;;5053919;28;20055;-44
2023/05/07 02:20:42;;;;;;;29.20;15.77;;;11.10;99.90;;;;;;5053543;28;20106;-43
2023/05/07 02:23:08;;;;;;;26.63;14.63;;;11.10;99.90;;;;;;5053798;28;20423;-43
2023/05/07 02:25:34;;;;;;;25.35;14.60;;;11.10;99.90;;;;;;5053716;28;20464;-44
2023/05/07 02:28:00;;;;;;;23.70;12.47;;;11.10;99.90;;;;;;5053744;28;20056;-43
2023/05/07 02:30:26;;;;;;;23.07;12.00;;;11.10;99.90;;;;;;5053373;28;20866;-44
2023/05/07 02:32:51;;;;;;;26.10;13.07;;;11.10;99.90;;;;;;5053590;28;20040;-44
2023/05/07 02:35:17;;;;;;;27.50;14.40;;;11.10;99.90;;;;;;5053297;28;20558;-45
2023/05/07 02:37:43;;;;;;;30.40;14.73;;;11.10;99.90;;;;;;5053570;28;20283;-43
2023/05/07 02:40:09;;;;;;;30.57;14.90;;;11.10;99.90;;;;;;5052614;28;20107;-44
2023/05/07 02:42:35;;;;;;;27.42;13.98;;;11.00;99.90;;;;;;5052365;28;20045;-44
2023/05/07 02:45:01;;;;;;;29.37;15.17;;;11.00;99.90;;;;;;5053377;28;20052;-44
2023/05/07 02:47:27;;;;;;;32.90;16.13;;;11.00;99.90;;;;;;5053345;28;20287;-43
2023/05/07 02:49:54;;;;;;;30.67;15.30;;;11.00;99.90;;;;;;5053163;28;20045;-44
2023/05/07 02:52:20;;;;;;;31.23;15.50;;;11.00;99.90;;;;;;5053165;28;20534;-43
2023/05/07 02:54:46;;;;;;;29.58;16.25;;;11.00;99.90;;;;;;5053448;28;20377;-43
2023/05/07 02:57:12;;;;;;;27.47;13.57;;;11.00;99.90;;;;;;5053309;28;20041;-43
2023/05/07 02:59:37;;;;;;;26.20;14.03;;;11.00;99.90;;;;;;5053576;28;20083;-43
2023/05/07 03:02:03;;;;;;;25.33;13.30;;;11.00;99.90;;;;;;5053225;28;20045;-44
2023/05/07 03:04:29;;;;;;;27.43;14.33;;;11.00;99.90;;;;;;5053064;28;20056;-44
2023/05/07 03:06:55;;;;;;;27.73;13.13;;;11.00;99.90;;;;;;5052969;28;20057;-44
2023/05/07 03:09:21;;;;;;;23.92;12.70;;;10.90;99.90;;;;;;5053485;28;20049;-43
2023/05/07 03:11:46;;;;;;;24.58;13.07;;;10.90;99.90;;;;;;5053166;28;20045;-44
2023/05/07 03:14:12;;;;;;;22.63;11.67;;;10.90;99.90;;;;;;5053422;28;20049;-43
2023/05/07 03:16:38;;;;;;;24.03;13.10;;;10.90;99.90;;;;;;5054732;28;20458;-44
2023/05/07 03:19:04;;;;;;;29.05;13.68;;;10.90;99.90;;;;;;5056700;28;20045;-44
2023/05/07 03:21:30;;;;;;;29.80;15.00;;;10.90;99.90;;;;;;5056898;28;20047;-44
2023/05/07 03:23:56;;;;;;;27.55;14.52;;;10.80;99.90;;;;;;5056719;28;20068;-43
2023/05/07 03:26:22;;;;;;;28.70;14.87;;;10.80;99.90;;;;;;5055715;28;20545;-44
2023/05/07 03:28:47;;;;;;;30.23;15.95;;;10.80;99.90;;;;;;5056577;28;20045;-43
2023/05/07 03:31:13;;;;;;;25.57;13.80;;;10.80;99.90;;;;;;5056762;28;20053;-43
2023/05/07 03:33:56;;;;;;;28.23;15.17;;;10.80;99.90;;;;;;5056535;28;20144;-43
2023/05/07 03:36:22;;;;;;;31.70;16.23;;;10.80;99.90;;;;;;5055674;28;20106;-43
2023/05/07 03:38:49;;;;;;;30.92;15.88;;;10.80;99.90;;;;;;5055516;28;20055;-44
2023/05/07 03:41:14;;;;;;;;;;;10.80;99.90;;;;;;5056749;28;20053;-44
2023/05/07 03:43:40;;;;;;;29.95;15.18;;;10.80;99.90;;;;;;5056313;28;19928;-43
2023/05/07 03:46:06;;;;;;;30.73;15.70;;;10.80;99.90;;;;;;5056170;28;20403;-44
2023/05/07 03:48:31;;;;;;;26.87;15.07;;;10.80;99.90;;;;;;5056420;28;20094;-44
2023/05/07 03:50:58;;;;;;;26.50;14.57;;;10.80;99.90;;;;;;5056192;28;20132;-44
2023/05/07 03:53:24;;;;;;;27.38;13.32;;;10.70;99.90;;;;;;5056456;28;20041;-44
2023/05/07 03:55:49;;;;;;;26.20;13.73;;;10.70;99.90;;;;;;5056027;28;20098;-44
2023/05/07 03:58:15;;;;;;;23.93;13.53;;;10.70;99.90;;;;;;5056095;28;20045;-43
2023/05/07 04:00:41;;;;;;;27.40;14.35;;;10.70;99.90;;;;;;5055971;28;20179;-44
2023/05/07 04:03:07;;;;;;;27.38;13.50;;;10.60;99.90;;;;;;5056094;28;20037;-44
2023/05/07 04:05:33;;;;;;;27.73;14.50;;;10.70;99.90;;;;;;5055940;28;20578;-44
2023/05/07 04:07:59;;;;;;;25.30;14.53;;;10.70;99.90;;;;;;5055656;28;20266;-44
2023/05/07 04:10:25;;;;;;;25.80;14.00;;;10.70;99.90;;;;;;5055844;28;20052;-43
2023/05/07 04:12:51;;;;;;;26.10;14.00;;;10.60;99.90;;;;;;5055904;28;20049;-43
2023/05/07 04:15:17;;;;;;;22.52;12.35;;;10.60;99.90;;;;;;5055711;28;20366;-43
2023/05/07 04:17:42;;;;;;;23.52;11.85;;;10.60;99.90;;;;;;5055781;28;20094;-43
2023/05/07 04:20:14;;;;;;;25.13;12.57;;;10.60;99.90;;;;;;5055875;28;20036;-43
2023/05/07 04:22:40;;;;;;;22.38;12.85;;;10.60;99.90;;;;;;5055840;28;20085;-44
2023/05/07 04:25:07;;;;;;;22.80;11.80;;;10.50;99.90;;;;;;5055882;28;20084;-44
2023/05/07 04:27:33;;;;;;;22.67;12.45;;;10.50;99.90;;;;;;5054103;28;20049;-44
2023/05/07 04:30:00;;;;;;;23.03;12.30;;;10.50;99.90;;;;;;5054309;28;20379;-44
2023/05/07 04:32:26;;;;;;;23.05;11.77;;;10.50;99.90;;;;;;5055678;28;20052;-43
2023/05/07 04:34:52;;;;;;;22.92;12.27;;;10.50;99.90;;;;;;5055590;28;20171;-44
2023/05/07 04:37:18;;;;;;;22.87;11.23;;;10.50;99.90;;;;;;5055806;28;20400;-43
2023/05/07 04:39:43;;;;;;;21.75;11.27;;;10.50;99.90;;;;;;5055631;28;20045;-44
2023/05/07 04:42:09;;;;;;;21.57;11.10;;;10.50;99.90;;;;;;5055483;28;20070;-44
2023/05/07 04:44:37;;;;;;;21.48;12.43;;;10.50;99.90;;;;;;5055207;28;20053;-44
2023/05/07 04:47:02;;;;;;;23.23;11.95;;;10.50;99.90;;;;;;5054451;28;20127;-44
2023/05/07 04:49:28;;;;;;;23.03;11.97;;;10.50;99.90;;;;;;5055352;28;20455;-43
2023/05/07 04:51:54;;;;;;;26.53;13.80;;;10.50;99.90;;;;;;5054135;28;20044;-44
2023/05/07 04:54:19;;;;;;;29.13;14.70;;;10.50;99.90;;;;;;5055175;28;20049;-44
2023/05/07 04:56:45;;;;;;;29.43;15.30;;;10.50;99.90;;;;;;5055262;28;20084;-44
2023/05/07 04:59:11;;;;;;;33.53;16.60;;;10.50;99.90;;;;;;5053954;28;20129;-44
2023/05/07 05:01:37;;;;;;;35.13;17.20;;;10.50;99.90;;;;;;5054719;28;20434;-46
2023/05/07 05:04:02;;;;;;;35.10;18.65;;;10.40;99.90;;;;;;5055053;28;20194;-44
2023/05/07 05:06:29;;;;;;;34.17;17.73;;;10.50;99.90;;;;;;5053780;28;20394;-43
2023/05/07 05:08:55;;;;;;;36.20;18.00;;;10.50;99.90;;;;;;5054623;28;20480;-44
2023/05/07 05:11:20;;;;;;;33.58;16.98;;;10.40;99.90;;;;;;5054739;28;20128;-44
2023/05/07 05:13:49;;;;;;;35.13;18.10;;;10.50;99.90;;;;;;5053702;28;20087;-44
2023/05/07 05:16:15;;;;;;;31.40;16.58;;;10.50;99.90;;;;;;5054868;28;20055;-44
2023/05/07 05:18:40;;;;;;;35.72;17.70;;;10.50;99.90;;;;;;5054923;28;20059;-44
2023/05/07 05:21:06;;;;;;;36.00;18.83;;;10.50;99.90;;;;;;5055080;28;20041;-45
2023/05/07 05:23:32;;;;;;;38.13;19.63;;;10.50;99.90;;;;;;5054426;28;20052;-43
2023/05/07 05:25:58;;;;;;;38.37;19.93;;;10.40;99.90;;;;;;5054619;28;20084;-43
2023/05/07 05:28:24;;;;;;;39.58;20.65;;;10.40;99.90;;;;;;5054392;28;20045;-43
2023/05/07 05:30:50;;;;;;;39.42;20.95;;;10.50;99.90;;;;;;5054306;28;20037;-43
2023/05/07 05:33:16;;;;;;;41.95;20.67;;;10.40;99.90;;;;;;5053567;28;20041;-43
2023/05/07 05:35:42;;;;;;;37.73;20.67;;;10.50;99.90;;;;;;5054396;28;20071;-44
2023/05/07 05:38:08;;;;;;;38.70;18.95;;;10.50;99.90;;;;;;5054078;28;20278;-45
2023/05/07 05:40:33;;;;;;;35.65;18.67;;;10.50;99.90;;;;;;5052720;28;20044;-44
2023/05/07 05:42:59;;;;;;;37.10;19.20;;;10.50;99.90;;;;;;5054121;28;20488;-43
2023/05/07 05:45:25;;;;;;;35.53;19.85;;;10.50;99.90;;;;;;5054306;28;20052;-45
2023/05/07 05:47:51;;;;;;;39.40;20.20;;;10.50;99.90;;;;;;5054026;28;20049;-43
2023/05/07 05:50:17;;;;;;;35.13;19.07;;;10.50;99.90;;;;;;5054048;28;20303;-44
2023/05/07 05:52:42;;;;;;;35.83;18.37;;;10.50;99.90;;;;;;5053747;28;20045;-43
2023/05/07 05:55:09;;;;;;;36.00;18.57;;;10.40;99.90;;;;;;5054168;28;20041;-44
2023/05/07 05:57:35;;;;;;;34.33;17.30;;;10.40;99.90;;;;;;5054013;28;20503;-43
2023/05/07 06:00:02;;;;;;;33.28;16.88;;;10.40;99.90;;;;;;5054027;28;20396;-43
2023/05/07 06:02:28;;;;;;;31.92;17.13;;;10.40;99.90;;;;;;5053993;28;20107;-44
2023/05/07 06:04:53;;;;;;;34.17;17.27;;;10.40;99.90;;;;;;5053914;28;20045;-43
2023/05/07 06:07:19;;;;;;;31.53;16.57;;;10.40;99.90;;;;;;5053573;28;20302;-45
2023/05/07 06:09:45;;;;;;;30.57;17.70;;;10.40;99.90;;;;;;5053797;28;20502;-45
2023/05/07 06:12:11;;;;;;;30.87;16.27;;;10.40;99.90;;;;;;5052642;28;20484;-43
2023/05/07 06:14:37;;;;;;;28.98;15.07;;;10.40;99.90;;;;;;5053882;28;20049;-44
2023/05/07 06:17:03;;;;;;;30.80;17.23;;;10.40;99.90;;;;;;5053585;28;20050;-43
2023/05/07 06:19:29;;;;;;;32.73;18.37;;;10.40;99.90;;;;;;5053795;28;20048;-44
2023/05/07 06:21:56;;;;;;;30.97;16.43;;;10.40;99.90;;;;;;5052754;28;20045;-45
2023/05/07 06:24:22;;;;;;;27.83;16.00;;;10.40;99.90;;;;;;5053528;28;20186;-44
2023/05/07 06:26:48;;;;;;;24.20;14.25;;;10.40;99.90;;;;;;5053430;28;20049;-45
2023/05/07 06:29:14;;;;;;;24.88;13.95;;;10.40;99.90;;;;;;5053591;28;20506;-44
2023/05/07 06:31:39;;;;;;;23.40;12.93;;;10.40;99.90;;;;;;5053571;28;20055;-44
2023/05/07 06:34:05;;;;;;;21.30;11.93;;;10.40;99.90;;;;;;5053559;28;20290;-44
2023/05/07 06:36:31;;;;;;;22.80;12.37;;;10.40;99.90;;;;;;5053740;28;20391;-46
2023/05/07 06:38:56;;;;;;;23.23;12.23;;;10.40;99.90;;;;;;5053513;28;20080;-44
2023/05/07 06:41:22;;;;;;;26.40;14.37;;;10.40;99.90;;;;;;5053255;28;20098;-44
2023/05/07 06:43:48;;;;;;;26.83;13.73;;;10.50;99.90;;;;;;5053634;28;20056;-45
2023/05/07 06:46:14;;;;;;;24.97;13.60;;;10.50;99.90;;;;;;5053200;28;20132;-42
2023/05/07 06:48:40;;;;;;;29.98;15.63;;;10.50;99.90;;;;;;5053276;28;20311;-44
2023/05/07 06:51:06;;;;;;;26.73;14.97;;;10.50;99.90;;;;;;5055789;28;20479;-44
2023/05/07 06:53:31;;;;;;;29.80;16.13;;;10.60;99.90;;;;;;5057507;28;20056;-44
2023/05/07 06:55:57;;;;;;;28.40;17.00;;;10.60;99.90;;;;;;5057490;28;20041;-43
2023/05/07 06:58:23;;;;;;;26.03;14.10;;;10.70;99.90;;;;;;5055938;28;20102;-45
2023/05/07 07:00:49;;;;;;;29.73;15.32;;;10.70;99.90;;;;;;5057396;28;20033;-44
2023/05/07 07:03:15;;;;;;;29.20;16.73;;;10.70;99.90;;;;;;5057560;28;20052;-43
2023/05/07 07:05:41;;;;;;;30.17;15.40;;;10.70;99.90;;;;;;5057303;28;20047;-44
2023/05/07 07:08:07;;;;;;;;;;;10.80;99.90;;;;;;5057541;28;20068;-43
2023/05/07 07:10:33;;;;;;;28.60;15.10;;;10.80;99.90;;;;;;5057127;28;19921;-45
2023/05/07 07:12:58;;;;;;;31.00;17.00;;;10.80;99.90;;;;;;5056892;28;20076;-45
2023/05/07 07:15:24;;;;;;;28.73;15.73;;;10.80;99.90;;;;;;5057104;28;20515;-43
2023/05/07 07:17:51;;;;;;;27.30;15.00;;;10.80;99.90;;;;;;5057378;28;20088;-44
2023/05/07 07:20:16;;;;;;;26.85;15.70;;;10.80;99.90;;;;;;5056936;28;20037;-43
2023/05/07 07:22:42;;;;;;;28.67;15.63;;;10.80;99.90;;;;;;5057074;28;20048;-44
2023/05/07 07:25:08;;;;;;;33.43;16.13;;;10.90;99.90;;;;;;5056769;28;20053;-44
2023/05/07 07:27:34;;;;;;;28.73;15.13;;;10.90;99.90;;;;;;5056554;28;20523;-43
2023/05/07 07:29:59;;;;;;;34.50;17.37;;;10.90;99.90;;;;;;5056937;28;20053;-43
2023/05/07 07:32:25;;;;;;;33.33;17.87;;;10.90;99.90;;;;;;5056861;28;20052;-43
2023/05/07 07:34:51;;;;;;;34.60;17.75;;;10.90;99.90;;;;;;5056774;28;20048;-48
2023/05/07 07:37:17;;;;;;;32.07;17.87;;;10.80;99.90;;;;;;5056656;28;20091;-43
2023/05/07 07:39:42;;;;;;;31.77;17.20;;;10.80;99.90;;;;;;5055447;28;20171;-44
2023/05/07 07:42:08;;;;;;;29.80;16.10;;;10.80;99.90;;;;;;5056386;28;20053;-44
2023/05/07 07:44:34;;;;;;;27.00;15.07;;;10.80;99.90;;;;;;5057226;28;20051;-45
2023/05/07 07:47:00;;;;;;;24.02;13.70;;;10.80;99.90;;;;;;5056585;28;20500;-45
2023/05/07 07:49:26;;;;;;;25.77;15.03;;;10.90;99.90;;;;;;5056385;28;20048;-44
2023/05/07 07:51:51;;;;;;;22.92;13.18;;;10.90;99.90;;;;;;5038803;28;20095;-44
2023/05/07 07:54:17;;;;;;;20.70;12.40;;;10.90;99.90;;;;;;5056304;28;20041;-47
2023/05/07 07:56:43;;;;;;;20.77;11.70;;;10.90;99.90;;;;;;5056176;28;20048;-46
2023/05/07 07:59:08;;;;;;;20.03;10.73;;;10.90;99.90;;;;;;5055258;28;20051;-48
2023/05/07 08:01:34;;;;;;;21.57;11.47;;;11.00;99.90;;;;;;5055563;28;20048;-46
2023/05/07 08:04:00;;;;;;;21.90;10.97;;;10.90;99.90;;;;;;5055484;28;20389;-46
2023/05/07 08:06:26;;;;;;;18.50;10.60;;;11.00;99.90;;;;;;5056144;28;20079;-43
2023/05/07 08:08:52;;;;;;;18.85;9.65;;;11.00;99.90;;;;;;5054674;28;20052;-46
2023/05/07 08:11:18;;;;;;;19.67;9.97;;;11.00;99.90;;;;;;5055777;28;20128;-47
2023/05/07 08:13:44;;;;;;;19.40;10.27;;;11.00;99.90;;;;;;5056053;28;20049;-44
2023/05/07 08:16:10;;;;;;;;;;;11.10;99.90;;;;;;5056479;28;20049;-43
2023/05/07 08:18:35;;;;;;;20.27;10.27;;;11.10;99.90;;;;;;5055983;28;19920;-42
2023/05/07 08:21:01;;;;;;;20.10;10.57;;;11.10;99.90;;;;;;5055725;28;20132;-44
2023/05/07 08:23:27;;;;;;;20.05;10.30;;;11.10;99.90;;;;;;5055793;28;20051;-44
2023/05/07 08:25:53;;;;;;;21.37;9.67;;;11.10;99.90;;;;;;5055507;28;20037;-43
2023/05/07 08:28:20;;;;;;;20.70;10.35;;;11.20;99.90;;;;;;5054570;28;20048;-43
2023/05/07 08:30:46;;;;;;;18.35;10.32;;;11.20;99.90;;;;;;5055602;28;20045;-43
2023/05/07 08:33:12;;;;;;;20.10;11.05;;;11.30;99.90;;;;;;5055619;28;20448;-44
2023/05/07 08:35:37;;;;;;;19.93;10.40;;;11.30;99.90;;;;;;5054921;28;20095;-43
2023/05/07 08:38:03;;;;;;;20.03;11.23;;;11.30;99.90;;;;;;5055570;28;20393;-43
2023/05/07 08:40:30;;;;;;;21.20;10.50;;;11.30;99.90;;;;;;5055221;28;20098;-43
2023/05/07 08:42:56;;;;;;;18.63;10.18;;;11.30;99.90;;;;;;5055461;28;20073;-43
2023/05/07 08:45:23;;;;;;;20.80;10.75;;;11.40;99.90;;;;;;5054250;28;20399;-45
2023/05/07 08:47:55;;;;;;;22.50;10.80;;;11.40;99.90;;;;;;5054610;28;20131;-43
2023/05/07 08:50:21;;;;;;;19.70;10.15;;;11.50;99.90;;;;;;5055411;28;20087;-43
2023/05/07 08:52:47;;;;;;;19.30;10.88;;;11.50;99.90;;;;;;5055092;28;20076;-43
2023/05/07 08:55:13;;;;;;;20.23;11.05;;;11.60;99.90;;;;;;5055301;28;20045;-43
2023/05/07 08:57:39;;;;;;;22.33;10.43;;;11.60;99.90;;;;;;5054315;28;20053;-43
2023/05/07 09:00:07;;;;;;;19.98;11.02;;;11.60;99.90;;;;;;5055184;28;20041;-43
2023/05/07 09:02:34;;;;;;;20.88;11.40;;;11.70;99.90;;;;;;5054192;28;20057;-45
2023/05/07 09:05:00;;;;;;;21.00;11.68;;;11.80;99.90;;;;;;5055038;28;20048;-43
2023/05/07 09:07:26;;;;;;;20.73;10.77;;;11.90;99.90;;;;;;5054704;28;20056;-43
2023/05/07 09:09:54;;;;;;;21.52;10.13;;;11.90;99.90;;;;;;5054944;28;20044;-43
2023/05/07 09:12:21;;;;;;;19.83;10.30;;;11.90;99.90;;;;;;5053986;28;20095;-43
2023/05/07 09:14:46;;;;;;;21.13;10.43;;;12.00;99.90;;;;;;5054904;28;20055;-43
2023/05/07 09:17:13;;;;;;;21.07;10.53;;;12.00;99.90;;;;;;5054996;28;20400;-43
2023/05/07 09:19:38;;;;;;;18.65;9.73;;;12.10;99.90;;;;;;5054635;28;20452;-44
2023/05/07 09:22:07;;;;;;;20.43;10.63;;;12.10;99.90;;;;;;5054506;28;20091;-43
2023/05/07 09:24:37;;;;;;;21.23;10.95;;;12.20;99.90;;;;;;5054738;28;20106;-43
2023/05/07 09:27:04;;;;;;;17.70;9.93;;;12.20;99.90;;;;;;5054720;28;20037;-44
2023/05/07 09:29:32;;;;;;;18.38;10.40;;;12.30;99.90;;;;;;5054420;28;20162;-43
2023/05/07 09:31:58;;;;;;;18.73;10.23;;;12.40;99.90;;;;;;5054519;28;20049;-44
2023/05/07 09:34:24;;;;;;;18.83;9.97;;;12.40;99.90;;;;;;5054475;28;20380;-44
2023/05/07 09:36:50;;;;;;;17.90;9.73;;;12.30;99.90;;;;;;5054364;28;20464;-43
2023/05/07 09:39:16;;;;;;;19.67;9.65;;;12.40;99.90;;;;;;5054855;28;20283;-44
2023/05/07 09:41:46;;;;;;;19.25;9.98;;;12.40;99.90;;;;;;5054313;28;20055;-43
2023/05/07 09:44:13;;;;;;;15.18;8.88;;;12.40;99.90;;;;;;5054478;28;20080;-43
2023/05/07 09:46:42;;;;;;;21.90;10.13;;;12.50;99.90;;;;;;5054399;28;20095;-44
2023/05/07 09:49:15;;;;;;;16.63;9.15;;;12.50;99.90;;;;;;5053858;28;20503;-43
2023/05/07 09:51:49;;;;;;;16.88;9.52;;;12.60;99.90;;;;;;5054191;28;20049;-43
2023/05/07 09:54:15;;;;;;;18.38;9.48;;;12.60;99.90;;;;;;5054152;28;20048;-43
2023/05/07 09:56:47;;;;;;;17.65;9.50;;;12.70;99.90;;;;;;5054029;28;20049;-43
2023/05/07 09:59:15;;;;;;;19.63;9.35;;;12.80;99.90;;;;;;5054079;28;20076;-44
2023/05/07 10:01:42;;;;;;;18.33;9.60;;;12.80;99.90;;;;;;5053757;28;20083;-43
2023/05/07 10:04:09;;;;;;;17.38;8.95;;;12.90;99.90;;;;;;5053990;28;20064;-43
2023/05/07 10:06:35;;;;;;;16.15;8.68;;;12.90;99.90;;;;;;5053957;28;20064;-43
2023/05/07 10:09:02;;;;;;;15.65;9.55;;;13.00;99.90;;;;;;5053910;28;20077;-45
2023/05/07 10:11:28;;;;;;;;;;;13.00;99.90;;;;;;5054251;28;20049;-43
2023/05/07 10:13:53;;;;;;;17.60;9.25;;;13.00;99.90;;;;;;5053840;28;19928;-43
2023/05/07 10:16:21;;;;;;;15.67;9.03;;;13.10;99.90;;;;;;5053663;28;20059;-44
2023/05/07 10:18:48;;;;;;;15.55;9.02;;;13.10;99.90;;;;;;5053669;28;20180;-43
2023/05/07 10:21:18;;;;;;;16.40;9.15;;;13.10;99.90;;;;;;5053772;28;20053;-44
2023/05/07 10:23:49;;;;;;;14.32;8.48;;;13.20;99.90;;;;;;5052754;28;20063;-43
2023/05/07 10:26:16;;;;;;;15.88;8.90;;;13.40;99.90;;;;;;5053326;28;20048;-45
2023/05/07 10:28:48;;;;;;;15.75;9.73;;;13.60;99.90;;;;;;5052347;28;20084;-45
2023/05/07 10:31:59;;;;;;;14.50;8.45;;;13.70;99.90;;;;;;5053745;28;20554;-43
2023/05/07 10:34:32;;;;;;;13.93;8.20;;;13.70;99.90;;;;;;5042335;28;20068;-44
2023/05/07 10:36:58;;;;;;;15.90;8.45;;;13.70;99.90;;;;;;5053646;28;20095;-44
2023/05/07 10:39:24;;;;;;;16.05;8.57;;;13.70;99.90;;;;;;5052306;28;20063;-44
2023/05/07 10:41:50;;;;;;;13.90;8.75;;;13.60;99.90;;;;;;5053498;28;20121;-47
2023/05/07 10:44:29;;;;;;;13.38;8.48;;;13.50;99.90;;;;;;5052316;28;20051;-48
2023/05/07 10:47:09;;;;;;;14.50;8.85;;;13.50;99.90;;;;;;5053463;28;20080;-47
2023/05/07 10:49:55;;;;;;;14.65;8.55;;;13.50;99.90;;;;;;5052183;28;20049;-44
2023/05/07 10:52:30;;;;;;;15.32;8.90;;;13.50;99.90;;;;;;5053137;28;20560;-43
2023/05/07 10:55:24;;;;;;;14.35;8.27;;;13.50;99.90;;;;;;5052611;28;20400;-45
2023/05/07 10:57:50;;;;;;;15.65;8.43;;;13.60;99.90;;;;;;5051485;28;20087;-45
2023/05/07 11:00:39;;;;;;;15.77;9.00;;;13.60;99.90;;;;;;5053263;28;20403;-44
2023/05/07 11:03:06;;;;;;;16.38;9.38;;;13.60;99.90;;;;;;5053072;28;20132;-46
2023/05/07 11:05:33;;;;;;;15.52;9.30;;;13.60;99.90;;;;;;5053276;28;20496;-44
2023/05/07 11:08:03;;;;;;;14.65;8.73;;;13.60;99.90;;;;;;5052048;28;20048;-43
2023/05/07 11:10:52;;;;;;;14.85;8.38;;;13.60;99.90;;;;;;5053062;28;20041;-44
2023/05/07 11:13:19;;;;;;;15.50;9.63;;;13.70;99.90;;;;;;5053265;28;20044;-45
2023/05/07 11:15:46;;;;;;;15.50;8.65;;;13.80;99.90;;;;;;5053587;28;20053;-45
2023/05/07 11:18:16;;;;;;;14.48;8.63;;;13.80;99.90;;;;;;5053175;28;20092;-43
2023/05/07 11:20:52;;;;;;;16.05;8.98;;;13.80;99.90;;;;;;5052955;28;20041;-43
2023/05/07 11:23:33;;;;;;;14.35;8.05;;;13.90;99.90;;;;;;5053226;28;20080;-43
2023/05/07 11:26:00;;;;;;;14.00;7.75;;;13.90;99.90;;;;;;5053153;28;20092;-43
2023/05/07 11:28:28;;;;;;;17.02;8.85;;;14.00;99.90;;;;;;5052988;28;20498;-44
2023/05/07 11:30:54;;;;;;;14.65;8.55;;;14.00;99.90;;;;;;5051659;28;20107;-44
2023/05/07 11:33:20;;;;;;;15.43;8.30;;;14.10;99.90;;;;;;5052001;28;20057;-43
2023/05/07 11:35:46;;;;;;;13.38;7.82;;;14.10;99.90;;;;;;5052767;28;20089;-43
2023/05/07 11:38:13;;;;;;;15.00;8.85;;;14.20;99.90;;;;;;5055343;28;20099;-44
2023/05/07 11:40:52;;;;;;;14.50;8.25;;;14.20;99.90;;;;;;5057009;28;20049;-43
2023/05/07 11:43:18;;;;;;;16.23;8.57;;;14.30;99.90;;;;;;5056507;28;20095;-43
2023/05/07 11:45:46;;;;;;;12.18;7.93;;;14.40;99.90;;;;;;5055645;28;20076;-43
2023/05/07 11:48:13;;;;;;;16.05;8.82;;;14.40;99.90;;;;;;5056219;28;20059;-43
2023/05/07 11:50:59;;;;;;;14.07;8.52;;;14.50;99.90;;;;;;5056226;28;20481;-43
2023/05/07 11:53:25;;;;;;;13.30;8.13;;;14.60;99.90;;;;;;5048136;28;20080;-43
2023/05/07 11:55:57;;;;;;;;;;;14.60;99.90;;;;;;5055592;28;20463;-43
2023/05/07 11:58:27;;;;;;;14.65;8.68;;;14.70;99.90;;;;;;5056158;28;19921;-44
2023/05/07 12:00:54;;;;;;;13.13;8.38;;;14.70;99.90;;;;;;5056265;28;20114;-43
2023/05/07 12:03:20;;;;;;;12.98;7.50;;;14.70;99.90;;;;;;5056231;28;20099;-44
2023/05/07 12:05:47;;;;;;;12.13;7.85;;;14.70;99.90;;;;;;5056130;28;20127;-44
2023/05/07 12:08:16;;;;;;;15.20;9.13;;;14.70;99.90;;;;;;5056167;28;20048;-43
2023/05/07 12:10:42;;;;;;;13.85;8.05;;;14.80;99.90;;;;;;5055963;28;20465;-44
2023/05/07 12:13:19;;;;;;;15.07;8.82;;;14.80;99.90;;;;;;5055899;28;20131;-43
2023/05/07 12:15:45;;;;;;;14.50;8.13;;;14.90;99.90;;;;;;5054866;28;20049;-44
2023/05/07 12:18:12;;;;;;;14.27;8.15;;;14.90;99.90;;;;;;5055857;28;20048;-44
2023/05/07 12:20:38;;;;;;;13.05;8.50;;;14.90;99.90;;;;;;5055896;28;20056;-43
2023/05/07 12:23:04;;;;;;;;;;;15.00;99.90;;;;;;5056231;28;20131;-43
2023/05/07 12:25:37;;;;;;;14.48;8.73;;;15.00;99.90;;;;;;5055771;28;19975;-43
2023/05/07 12:28:06;;;;;;;15.02;8.68;;;15.10;99.90;;;;;;5055863;28;20088;-44
2023/05/07 12:30:39;;;;;;;13.75;8.80;;;15.20;99.90;;;;;;5055712;28;20399;-43
2023/05/07 12:33:05;;;;;;;14.30;9.32;;;15.40;99.90;;;;;;5055787;28;20115;-43